sensor_id;sensor_type;location;lat;lon;timestamp;pressure;altitude;pressure_sealevel;temperature;humidity
55757;BME280;41676;44.610;44.078;2023-02-17T00:03:08;101306.59;;;-3.09;76.11
55757;BME280;41676;44.610;44.078;2023-02-17T00:08:09;101281.91;;;-3.21;76.56
55757;BME280;41676;44.610;44.078;2023-02-17T00:13:10;101317.69;;;-3.04;77.05
55757;BME280;41676;44.610;44.078;2023-02-17T00:18:11;101311.44;;;-3.00;78.44
55757;BME280;41676;44.610;44.078;2023-02-17T00:23:12;101295.34;;;-3.10;78.80
55757;BME280;41676;44.610;44.078;2023-02-17T00:28:13;101282.38;;;-3.10;79.28
55757;BME280;41676;44.610;44.078;2023-02-17T00:33:14;101220.97;;;-3.36;79.25
55757;BME280;41676;44.610;44.078;2023-02-17T00:38:14;101309.09;;;-2.84;78.95
55757;BME280;41676;44.610;44.078;2023-02-17T00:43:15;101285.47;;;-3.00;79.13
55757;BME280;41676;44.610;44.078;2023-02-17T00:48:16;101315.47;;;-2.69;78.69
55757;BME280;41676;44.610;44.078;2023-02-17T00:53:17;101234.19;;;-3.18;78.25
55757;BME280;41676;44.610;44.078;2023-02-17T00:58:18;101299.59;;;-2.84;78.25
55757;BME280;41676;44.610;44.078;2023-02-17T01:03:18;101292.91;;;-2.91;78.22
55757;BME280;41676;44.610;44.078;2023-02-17T01:08:20;101320.50;;;-2.87;78.14
55757;BME280;41676;44.610;44.078;2023-02-17T01:13:21;101318.28;;;-2.97;78.10
55757;BME280;41676;44.610;44.078;2023-02-17T01:18:23;101240.63;;;-3.52;78.00
55757;BME280;41676;44.610;44.078;2023-02-17T01:23:24;101336.22;;;-3.13;78.02
55757;BME280;41676;44.610;44.078;2023-02-17T01:28:25;101339.31;;;-3.27;78.74
55757;BME280;41676;44.610;44.078;2023-02-17T01:33:26;101329.63;;;-3.47;79.22
55757;BME280;41676;44.610;44.078;2023-02-17T01:38:26;101216.56;;;-4.31;79.03
55757;BME280;41676;44.610;44.078;2023-02-17T01:43:28;101315.22;;;-3.81;79.07
55757;BME280;41676;44.610;44.078;2023-02-17T01:48:36;101327.66;;;-3.91;79.76
55757;BME280;41676;44.610;44.078;2023-02-17T01:53:43;101261.66;;;-4.62;79.93
55757;BME280;41676;44.610;44.078;2023-02-17T01:58:49;101354.84;;;-4.29;80.34
55757;BME280;41676;44.610;44.078;2023-02-17T02:03:53;101329.25;;;-4.68;80.41
55757;BME280;41676;44.610;44.078;2023-02-17T02:08:58;101276.13;;;-5.11;80.48
55757;BME280;41676;44.610;44.078;2023-02-17T02:14:01;101321.50;;;-4.97;80.96
55757;BME280;41676;44.610;44.078;2023-02-17T02:19:45;101215.13;;;-5.80;81.56
55757;BME280;41676;44.610;44.078;2023-02-17T02:25:31;101374.06;;;-4.92;82.25
55757;BME280;41676;44.610;44.078;2023-02-17T02:36:14;101390.91;;;-5.09;82.21
55757;BME280;41676;44.610;44.078;2023-02-17T02:41:23;101404.84;;;-5.13;82.47
55757;BME280;41676;44.610;44.078;2023-02-17T02:46:26;101404.84;;;-5.11;81.46
55757;BME280;41676;44.610;44.078;2023-02-17T02:51:33;101408.56;;;-4.90;82.07
55757;BME280;41676;44.610;44.078;2023-02-17T03:13:02;101429.03;;;-4.81;81.05
55757;BME280;41676;44.610;44.078;2023-02-17T03:18:03;101413.03;;;-4.95;81.43
55757;BME280;41676;44.610;44.078;2023-02-17T03:23:05;101354.63;;;-5.38;81.36
55757;BME280;41676;44.610;44.078;2023-02-17T03:28:06;101414.88;;;-5.00;81.34
55757;BME280;41676;44.610;44.078;2023-02-17T03:33:07;101385.13;;;-5.17;81.27
55757;BME280;41676;44.610;44.078;2023-02-17T03:38:08;101415.13;;;-5.10;81.62
55757;BME280;41676;44.610;44.078;2023-02-17T03:43:09;101427.56;;;-5.22;81.83
55757;BME280;41676;44.610;44.078;2023-02-17T03:48:09;101426.06;;;-5.31;81.67
55757;BME280;41676;44.610;44.078;2023-02-17T03:53:11;101422.09;;;-5.44;81.53
55757;BME280;41676;44.610;44.078;2023-02-17T03:58:11;101429.06;;;-5.46;81.70
55757;BME280;41676;44.610;44.078;2023-02-17T04:03:12;101415.03;;;-5.72;81.76
55757;BME280;41676;44.610;44.078;2023-02-17T04:08:13;101433.78;;;-5.62;81.85
55757;BME280;41676;44.610;44.078;2023-02-17T04:13:14;101443.19;;;-5.60;82.24
55757;BME280;41676;44.610;44.078;2023-02-17T04:18:15;101437.03;;;-5.54;82.22
55757;BME280;41676;44.610;44.078;2023-02-17T04:23:17;101453.88;;;-5.38;82.21
55757;BME280;41676;44.610;44.078;2023-02-17T04:28:19;101306.94;;;-6.28;81.30
55757;BME280;41676;44.610;44.078;2023-02-17T04:33:21;101413.56;;;-5.48;81.52
55757;BME280;41676;44.610;44.078;2023-02-17T04:38:21;101463.22;;;-4.68;81.79
55757;BME280;41676;44.610;44.078;2023-02-17T04:43:24;101458.97;;;-4.11;81.13
55757;BME280;41676;44.610;44.078;2023-02-17T04:48:25;101452.41;;;-3.69;80.52
55757;BME280;41676;44.610;44.078;2023-02-17T04:53:26;101460.63;;;-3.29;79.21
55757;BME280;41676;44.610;44.078;2023-02-17T04:58:27;101380.63;;;-3.45;78.01
55757;BME280;41676;44.610;44.078;2023-02-17T05:03:28;101459.47;;;-2.95;76.67
55757;BME280;41676;44.610;44.078;2023-02-17T05:08:29;101468.22;;;-3.23;76.50
55757;BME280;41676;44.610;44.078;2023-02-17T05:13:29;101360.13;;;-4.32;76.99
55757;BME280;41676;44.610;44.078;2023-02-17T05:18:32;101421.69;;;-4.09;76.65
55757;BME280;41676;44.610;44.078;2023-02-17T05:23:33;101509.97;;;-3.54;76.91
55757;BME280;41676;44.610;44.078;2023-02-17T05:28:40;101500.59;;;-3.32;77.09
55757;BME280;41676;44.610;44.078;2023-02-17T05:33:41;101489.59;;;-3.15;76.41
55757;BME280;41676;44.610;44.078;2023-02-17T05:38:42;101506.06;;;-2.41;75.94
55757;BME280;41676;44.610;44.078;2023-02-17T05:43:45;101497.28;;;-2.15;75.37
55757;BME280;41676;44.610;44.078;2023-02-17T05:48:46;101502.97;;;-1.83;74.21
55757;BME280;41676;44.610;44.078;2023-02-17T05:53:48;101495.81;;;-1.76;73.79
55757;BME280;41676;44.610;44.078;2023-02-17T05:58:48;101497.28;;;-1.49;73.56
55757;BME280;41676;44.610;44.078;2023-02-17T06:03:49;101430.16;;;-1.64;73.17
55757;BME280;41676;44.610;44.078;2023-02-17T06:08:50;101415.00;;;-1.34;73.21
55757;BME280;41676;44.610;44.078;2023-02-17T06:13:51;101453.63;;;-0.82;72.09
55757;BME280;41676;44.610;44.078;2023-02-17T06:18:52;101451.34;;;-0.51;72.10
55757;BME280;41676;44.610;44.078;2023-02-17T06:23:53;101467.13;;;-0.54;71.07
55757;BME280;41676;44.610;44.078;2023-02-17T06:28:53;101452.00;;;-0.66;71.14
55757;BME280;41676;44.610;44.078;2023-02-17T06:33:54;101463.75;;;-0.37;71.75
55757;BME280;41676;44.610;44.078;2023-02-17T06:38:55;101455.69;;;-0.13;71.17
55757;BME280;41676;44.610;44.078;2023-02-17T06:43:55;101449.00;;;0.17;70.20
55757;BME280;41676;44.610;44.078;2023-02-17T06:48:56;101456.19;;;0.31;69.78
55757;BME280;41676;44.610;44.078;2023-02-17T06:53:57;101444.09;;;0.29;69.54
55757;BME280;41676;44.610;44.078;2023-02-17T06:58:58;101452.28;;;0.57;69.32
55757;BME280;41676;44.610;44.078;2023-02-17T07:04:00;101423.97;;;0.65;68.77
55757;BME280;41676;44.610;44.078;2023-02-17T07:09:01;101430.31;;;0.95;67.79
55757;BME280;41676;44.610;44.078;2023-02-17T07:14:02;101436.03;;;1.03;67.56
55757;BME280;41676;44.610;44.078;2023-02-17T07:19:02;101442.75;;;0.74;67.96
55757;BME280;41676;44.610;44.078;2023-02-17T07:24:03;101450.66;;;0.55;67.91
55757;BME280;41676;44.610;44.078;2023-02-17T07:29:05;101446.34;;;0.54;67.90
55757;BME280;41676;44.610;44.078;2023-02-17T07:34:06;101463.13;;;0.84;66.88
55757;BME280;41676;44.610;44.078;2023-02-17T07:39:07;101371.97;;;-0.10;67.93
55757;BME280;41676;44.610;44.078;2023-02-17T07:44:08;101451.25;;;-0.11;68.55
55757;BME280;41676;44.610;44.078;2023-02-17T07:49:09;101374.00;;;-0.34;68.15
55757;BME280;41676;44.610;44.078;2023-02-17T07:54:10;101464.50;;;0.39;68.50
55757;BME280;41676;44.610;44.078;2023-02-17T07:59:13;101388.59;;;0.06;67.17
55757;BME280;41676;44.610;44.078;2023-02-17T08:04:15;101419.13;;;0.23;67.16
55757;BME280;41676;44.610;44.078;2023-02-17T08:09:16;101430.13;;;0.47;67.22
55757;BME280;41676;44.610;44.078;2023-02-17T08:14:35;101461.44;;;0.66;67.42
55757;BME280;41676;44.610;44.078;2023-02-17T08:19:37;101435.41;;;0.80;66.81
55757;BME280;41676;44.610;44.078;2023-02-17T08:24:38;101377.47;;;0.37;66.24
55757;BME280;41676;44.610;44.078;2023-02-17T08:29:40;101426.91;;;1.10;66.71
55757;BME280;41676;44.610;44.078;2023-02-17T08:34:41;101439.97;;;1.43;65.63
55757;BME280;41676;44.610;44.078;2023-02-17T08:39:42;101360.47;;;0.97;64.74
55757;BME280;41676;44.610;44.078;2023-02-17T08:44:42;101429.00;;;1.36;65.48
55757;BME280;41676;44.610;44.078;2023-02-17T08:49:43;101429.44;;;1.76;64.76
55757;BME280;41676;44.610;44.078;2023-02-17T08:54:44;101390.31;;;1.89;63.93
55757;BME280;41676;44.610;44.078;2023-02-17T08:59:45;101317.41;;;1.66;63.63
55757;BME280;41676;44.610;44.078;2023-02-17T09:04:49;101393.09;;;1.70;62.72
55757;BME280;41676;44.610;44.078;2023-02-17T09:09:50;101374.25;;;1.79;63.91
55757;BME280;41676;44.610;44.078;2023-02-17T09:14:50;101286.00;;;1.34;62.74
55757;BME280;41676;44.610;44.078;2023-02-17T09:19:51;101358.16;;;2.32;62.26
55757;BME280;41676;44.610;44.078;2023-02-17T09:24:52;101342.38;;;2.62;61.28
55757;BME280;41676;44.610;44.078;2023-02-17T09:29:53;101362.53;;;3.04;60.53
55757;BME280;41676;44.610;44.078;2023-02-17T09:34:54;101366.28;;;2.86;60.00
55757;BME280;41676;44.610;44.078;2023-02-17T09:39:54;101330.97;;;2.91;60.66
55757;BME280;41676;44.610;44.078;2023-02-17T09:45:06;101354.22;;;3.12;58.45
55757;BME280;41676;44.610;44.078;2023-02-17T09:50:14;101344.38;;;2.72;59.32
55757;BME280;41676;44.610;44.078;2023-02-17T09:55:24;101339.44;;;2.38;58.70
55757;BME280;41676;44.610;44.078;2023-02-17T10:00:36;101321.25;;;2.20;60.08
55757;BME280;41676;44.610;44.078;2023-02-17T10:05:43;101327.03;;;2.11;59.98
55757;BME280;41676;44.610;44.078;2023-02-17T10:10:52;101340.13;;;2.11;59.78
55757;BME280;41676;44.610;44.078;2023-02-17T10:15:55;101325.13;;;1.99;60.72
55757;BME280;41676;44.610;44.078;2023-02-17T10:32:27;101306.81;;;2.13;60.42
55757;BME280;41676;44.610;44.078;2023-02-17T10:42:36;101268.41;;;1.98;60.21
55757;BME280;41676;44.610;44.078;2023-02-17T10:47:38;101267.38;;;1.70;59.70
55757;BME280;41676;44.610;44.078;2023-02-17T10:52:40;101235.19;;;1.68;60.21
55757;BME280;41676;44.610;44.078;2023-02-17T10:57:41;101246.13;;;2.05;60.07
55757;BME280;41676;44.610;44.078;2023-02-17T11:02:45;101097.66;;;1.02;59.90
55757;BME280;41676;44.610;44.078;2023-02-17T11:07:47;101174.06;;;1.23;61.56
55757;BME280;41676;44.610;44.078;2023-02-17T11:12:51;101134.44;;;0.99;62.15
55757;BME280;41676;44.610;44.078;2023-02-17T11:17:55;101239.25;;;1.44;63.22
55757;BME280;41676;44.610;44.078;2023-02-17T11:23:19;101245.09;;;1.17;65.21
55757;BME280;41676;44.610;44.078;2023-02-17T11:28:22;101258.66;;;0.92;65.62
55757;BME280;41676;44.610;44.078;2023-02-17T11:33:37;101260.72;;;0.87;66.57
55757;BME280;41676;44.610;44.078;2023-02-17T11:43:42;101220.31;;;0.43;66.58
55757;BME280;41676;44.610;44.078;2023-02-17T11:49:22;101263.22;;;0.73;68.11
55757;BME280;41676;44.610;44.078;2023-02-17T12:00:21;101177.72;;;-0.25;68.84
55757;BME280;41676;44.610;44.078;2023-02-17T12:05:40;101185.69;;;-0.11;69.42
55757;BME280;41676;44.610;44.078;2023-02-17T12:11:21;101273.59;;;0.41;70.40
55757;BME280;41676;44.610;44.078;2023-02-17T12:21:45;101214.34;;;-0.44;70.49
55757;BME280;41676;44.610;44.078;2023-02-17T12:38:01;101286.94;;;-0.16;75.20
55757;BME280;41676;44.610;44.078;2023-02-17T12:48:55;101175.53;;;-1.04;75.86
55757;BME280;41676;44.610;44.078;2023-02-17T12:54:03;101259.94;;;-0.51;76.07
55757;BME280;41676;44.610;44.078;2023-02-17T12:59:17;101268.09;;;-0.40;76.83
55757;BME280;41676;44.610;44.078;2023-02-17T13:04:20;101253.91;;;-0.34;75.98
55757;BME280;41676;44.610;44.078;2023-02-17T13:09:26;101270.25;;;0.04;75.46
55757;BME280;41676;44.610;44.078;2023-02-17T13:19:40;101254.13;;;0.13;75.63
55757;BME280;41676;44.610;44.078;2023-02-17T13:24:52;101268.47;;;0.22;76.00
55757;BME280;41676;44.610;44.078;2023-02-17T13:40:33;101236.00;;;-0.07;76.36
55757;BME280;41676;44.610;44.078;2023-02-17T13:45:47;101088.97;;;-1.12;77.09
55757;BME280;41676;44.610;44.078;2023-02-17T13:50:52;101252.22;;;-0.35;77.22
55757;BME280;41676;44.610;44.078;2023-02-17T13:55:59;101190.81;;;-0.79;76.88
55757;BME280;41676;44.610;44.078;2023-02-17T14:01:02;101231.22;;;-0.68;77.21
55757;BME280;41676;44.610;44.078;2023-02-17T14:06:03;101223.94;;;-0.81;77.76
55757;BME280;41676;44.610;44.078;2023-02-17T14:11:17;101217.00;;;-0.80;81.18
55757;BME280;41676;44.610;44.078;2023-02-17T14:16:38;101215.38;;;-0.83;81.68
55757;BME280;41676;44.610;44.078;2023-02-17T14:21:59;101210.38;;;-0.87;82.32
55757;BME280;41676;44.610;44.078;2023-02-17T14:27:05;101208.06;;;-0.94;80.60
55757;BME280;41676;44.610;44.078;2023-02-17T14:32:29;101216.03;;;-0.97;82.79
55757;BME280;41676;44.610;44.078;2023-02-17T14:37:30;101224.41;;;-0.90;81.13
55757;BME280;41676;44.610;44.078;2023-02-17T14:42:36;101217.50;;;-0.91;80.89
55757;BME280;41676;44.610;44.078;2023-02-17T14:47:36;101217.19;;;-0.85;81.35
55757;BME280;41676;44.610;44.078;2023-02-17T14:52:46;101135.53;;;-1.22;82.80
55757;BME280;41676;44.610;44.078;2023-02-17T14:57:48;101136.66;;;-1.27;82.59
55757;BME280;41676;44.610;44.078;2023-02-17T15:02:49;101219.22;;;-0.73;83.03
55757;BME280;41676;44.610;44.078;2023-02-17T15:07:50;101102.56;;;-1.42;82.94
55757;BME280;41676;44.610;44.078;2023-02-17T15:12:52;101211.63;;;-0.77;83.67
55757;BME280;41676;44.610;44.078;2023-02-17T15:17:53;101219.47;;;-0.77;83.70
55757;BME280;41676;44.610;44.078;2023-02-17T15:22:55;101214.69;;;-0.86;84.95
55757;BME280;41676;44.610;44.078;2023-02-17T15:27:57;101205.38;;;-0.92;84.72
55757;BME280;41676;44.610;44.078;2023-02-17T15:32:58;101219.91;;;-0.86;85.41
55757;BME280;41676;44.610;44.078;2023-02-17T15:37:58;101225.28;;;-0.72;85.48
55757;BME280;41676;44.610;44.078;2023-02-17T15:42:59;101201.84;;;-0.91;85.65
55757;BME280;41676;44.610;44.078;2023-02-17T15:48:10;101214.78;;;-0.71;87.83
55757;BME280;41676;44.610;44.078;2023-02-17T15:53:12;101197.03;;;-0.81;85.75
55757;BME280;41676;44.610;44.078;2023-02-17T15:58:18;101205.34;;;-0.73;87.33
55757;BME280;41676;44.610;44.078;2023-02-17T16:03:20;101186.88;;;-0.87;85.80
55757;BME280;41676;44.610;44.078;2023-02-17T16:08:21;101164.66;;;-0.95;86.37
55757;BME280;41676;44.610;44.078;2023-02-17T16:13:23;101192.09;;;-0.87;86.94
55757;BME280;41676;44.610;44.078;2023-02-17T16:18:26;101102.91;;;-1.30;86.64
55757;BME280;41676;44.610;44.078;2023-02-17T16:23:26;101157.75;;;-0.96;87.24
55757;BME280;41676;44.610;44.078;2023-02-17T16:28:28;101154.56;;;-1.02;86.85
55757;BME280;41676;44.610;44.078;2023-02-17T16:33:29;101171.03;;;-0.83;87.38
55757;BME280;41676;44.610;44.078;2023-02-17T16:38:29;101176.00;;;-0.78;87.90
55757;BME280;41676;44.610;44.078;2023-02-17T16:43:33;101103.69;;;-1.28;87.61
55757;BME280;41676;44.610;44.078;2023-02-17T16:48:35;101186.97;;;-0.89;87.75
55757;BME280;41676;44.610;44.078;2023-02-17T16:53:35;101181.97;;;-0.94;87.85
55757;BME280;41676;44.610;44.078;2023-02-17T16:58:36;101159.63;;;-0.99;87.93
55757;BME280;41676;44.610;44.078;2023-02-17T17:03:39;101007.22;;;-2.01;88.39
55757;BME280;41676;44.610;44.078;2023-02-17T17:08:40;101153.25;;;-1.11;88.44
55757;BME280;41676;44.610;44.078;2023-02-17T17:13:42;101146.66;;;-1.18;88.71
55757;BME280;41676;44.610;44.078;2023-02-17T17:18:45;101127.75;;;-1.23;88.59
55757;BME280;41676;44.610;44.078;2023-02-17T17:23:46;100970.75;;;-2.18;88.83
55757;BME280;41676;44.610;44.078;2023-02-17T17:28:47;101131.28;;;-1.24;88.92
55757;BME280;41676;44.610;44.078;2023-02-17T17:33:50;101116.72;;;-1.28;88.70
55757;BME280;41676;44.610;44.078;2023-02-17T17:38:52;101102.81;;;-1.29;88.59
55757;BME280;41676;44.610;44.078;2023-02-17T17:43:53;101091.16;;;-1.39;88.96
55757;BME280;41676;44.610;44.078;2023-02-17T17:48:58;101101.28;;;-1.33;89.53
55757;BME280;41676;44.610;44.078;2023-02-17T17:53:59;101110.72;;;-1.30;89.63
55757;BME280;41676;44.610;44.078;2023-02-17T17:59:01;101010.81;;;-1.85;89.23
55757;BME280;41676;44.610;44.078;2023-02-17T18:04:03;101079.06;;;-1.40;89.77
55757;BME280;41676;44.610;44.078;2023-02-17T18:09:06;101089.09;;;-1.32;89.55
55757;BME280;41676;44.610;44.078;2023-02-17T18:14:09;101100.22;;;-1.29;89.92
55757;BME280;41676;44.610;44.078;2023-02-17T18:19:11;101082.28;;;-1.35;90.31
55757;BME280;41676;44.610;44.078;2023-02-17T18:24:12;101055.03;;;-1.47;89.94
55757;BME280;41676;44.610;44.078;2023-02-17T18:29:13;101059.41;;;-1.47;90.29
55757;BME280;41676;44.610;44.078;2023-02-17T18:34:14;101058.28;;;-1.42;90.08
55757;BME280;41676;44.610;44.078;2023-02-17T18:39:14;101061.28;;;-1.32;89.75
55757;BME280;41676;44.610;44.078;2023-02-17T18:44:15;101028.06;;;-1.46;90.42
55757;BME280;41676;44.610;44.078;2023-02-17T18:49:16;101017.25;;;-1.38;90.73
55757;BME280;41676;44.610;44.078;2023-02-17T18:54:17;101037.13;;;-1.35;90.31
55757;BME280;41676;44.610;44.078;2023-02-17T18:59:17;101050.19;;;-1.18;91.17
55757;BME280;41676;44.610;44.078;2023-02-17T19:04:18;101049.09;;;-1.14;90.90
55757;BME280;41676;44.610;44.078;2023-02-17T19:09:19;101048.34;;;-1.16;90.68
55757;BME280;41676;44.610;44.078;2023-02-17T19:14:20;101011.00;;;-1.34;90.63
55757;BME280;41676;44.610;44.078;2023-02-17T19:19:21;101042.72;;;-1.26;91.16
55757;BME280;41676;44.610;44.078;2023-02-17T19:24:22;100937.75;;;-1.81;90.97
55757;BME280;41676;44.610;44.078;2023-02-17T19:29:22;101009.69;;;-1.43;91.52
55757;BME280;41676;44.610;44.078;2023-02-17T19:34:24;101023.78;;;-1.29;90.75
55757;BME280;41676;44.610;44.078;2023-02-17T19:39:25;100998.81;;;-1.33;91.01
55757;BME280;41676;44.610;44.078;2023-02-17T19:44:26;100866.56;;;-2.17;91.45
55757;BME280;41676;44.610;44.078;2023-02-17T19:49:27;100999.94;;;-1.39;91.90
55757;BME280;41676;44.610;44.078;2023-02-17T19:54:27;101003.69;;;-1.45;91.37
55757;BME280;41676;44.610;44.078;2023-02-17T19:59:30;101001.63;;;-1.55;92.08
55757;BME280;41676;44.610;44.078;2023-02-17T20:04:31;101009.84;;;-1.46;92.64
55757;BME280;41676;44.610;44.078;2023-02-17T20:09:32;100971.75;;;-1.48;92.00
55757;BME280;41676;44.610;44.078;2023-02-17T20:14:33;100950.78;;;-1.47;91.33
55757;BME280;41676;44.610;44.078;2023-02-17T20:19:38;100991.59;;;-1.46;92.70
55757;BME280;41676;44.610;44.078;2023-02-17T20:24:38;100966.28;;;-1.44;91.58
55757;BME280;41676;44.610;44.078;2023-02-17T20:29:41;100893.41;;;-1.97;91.15
55757;BME280;41676;44.610;44.078;2023-02-17T20:34:42;100970.06;;;-1.49;92.04
55757;BME280;41676;44.610;44.078;2023-02-17T20:39:42;100955.41;;;-1.52;92.39
55757;BME280;41676;44.610;44.078;2023-02-17T20:44:43;100956.63;;;-1.42;91.85
55757;BME280;41676;44.610;44.078;2023-02-17T20:49:45;100930.41;;;-1.56;92.21
55757;BME280;41676;44.610;44.078;2023-02-17T20:54:45;100950.75;;;-1.45;92.60
55757;BME280;41676;44.610;44.078;2023-02-17T20:59:46;100946.31;;;-1.43;93.11
55757;BME280;41676;44.610;44.078;2023-02-17T21:04:47;100919.47;;;-1.63;92.48
55757;BME280;41676;44.610;44.078;2023-02-17T21:09:48;100941.47;;;-1.51;92.60
55757;BME280;41676;44.610;44.078;2023-02-17T21:14:48;100807.53;;;-2.16;93.08
55757;BME280;41676;44.610;44.078;2023-02-17T21:19:49;100909.19;;;-1.48;93.23
55757;BME280;41676;44.610;44.078;2023-02-17T21:24:50;100909.25;;;-1.50;92.55
55757;BME280;41676;44.610;44.078;2023-02-17T21:29:51;100814.19;;;-2.11;92.90
55757;BME280;41676;44.610;44.078;2023-02-17T21:34:52;100885.53;;;-1.61;92.69
55757;BME280;41676;44.610;44.078;2023-02-17T21:39:53;100874.34;;;-1.63;92.89
55757;BME280;41676;44.610;44.078;2023-02-17T21:44:53;100885.38;;;-1.58;93.11
55757;BME280;41676;44.610;44.078;2023-02-17T21:49:54;100916.34;;;-1.34;93.62
55757;BME280;41676;44.610;44.078;2023-02-17T21:54:55;100906.81;;;-1.35;92.96
55757;BME280;41676;44.610;44.078;2023-02-17T21:59:56;100914.25;;;-1.28;93.36
55757;BME280;41676;44.610;44.078;2023-02-17T22:04:56;100906.88;;;-1.20;93.78
55757;BME280;41676;44.610;44.078;2023-02-17T22:09:58;100891.00;;;-1.15;94.13
55757;BME280;41676;44.610;44.078;2023-02-17T22:14:59;100903.53;;;-1.06;93.84
55757;BME280;41676;44.610;44.078;2023-02-17T22:19:59;100925.25;;;-1.05;93.63
55757;BME280;41676;44.610;44.078;2023-02-17T22:25:00;100845.34;;;-1.40;93.60
55757;BME280;41676;44.610;44.078;2023-02-17T22:30:02;100912.75;;;-0.99;93.41
55757;BME280;41676;44.610;44.078;2023-02-17T22:35:03;100894.25;;;-0.94;93.58
55757;BME280;41676;44.610;44.078;2023-02-17T22:40:06;100868.66;;;-1.03;93.53
55757;BME280;41676;44.610;44.078;2023-02-17T22:45:08;100871.47;;;-1.08;93.11
55757;BME280;41676;44.610;44.078;2023-02-17T22:50:09;100853.81;;;-1.19;93.05
55757;BME280;41676;44.610;44.078;2023-02-17T22:55:09;100826.69;;;-1.32;93.24
55757;BME280;41676;44.610;44.078;2023-02-17T23:00:10;100864.16;;;-1.17;93.36
55757;BME280;41676;44.610;44.078;2023-02-17T23:05:11;100854.75;;;-1.20;92.93
55757;BME280;41676;44.610;44.078;2023-02-17T23:10:12;100862.16;;;-1.12;93.39
55757;BME280;41676;44.610;44.078;2023-02-17T23:15:13;100855.16;;;-1.11;93.77
55757;BME280;41676;44.610;44.078;2023-02-17T23:20:14;100855.50;;;-1.02;93.36
55757;BME280;41676;44.610;44.078;2023-02-17T23:25:15;100794.69;;;-1.34;93.36
55757;BME280;41676;44.610;44.078;2023-02-17T23:30:19;100765.78;;;-1.47;93.92
55757;BME280;41676;44.610;44.078;2023-02-17T23:35:20;100815.47;;;-1.17;93.16
55757;BME280;41676;44.610;44.078;2023-02-17T23:40:21;100827.13;;;-1.24;93.25
55757;BME280;41676;44.610;44.078;2023-02-17T23:45:22;100839.28;;;-1.07;94.05
55757;BME280;41676;44.610;44.078;2023-02-17T23:50:23;100759.91;;;-1.50;93.76
55757;BME280;41676;44.610;44.078;2023-02-17T23:55:24;100796.28;;;-1.31;92.83
